Mataró Vista Alegre (Maresme)





Hora UTC 22:25
Temperatura 24.9 ºC
Humedad 70.0 %
Presión 1013.5 hPa
Pluja 0.0 mm
Velocidad viento 1.6 km/h
Dirección viento

Datos diarios 2024-07-24



Hora UTC (invierno +1h; verano +2h)
Temperatura (ºC) Humedad (%) Presión (hPa) Velocidad viento (km/h) Precipitación (mm)
Hora UTC Aire Humedad Presión Vel. Dir. Vel. Max Dir. Intent. máx 5 min.
00:05 24.3 73.0 1017.3 4.8 4.8 0.0
00:15 24.2 74.0 1017.3 3.2 11.3 0.0
00:25 24.1 75.0 1017.1 6.4 11.3 0.0
00:35 23.9 75.0 1017.0 4.8 11.3 0.0
00:45 23.8 76.0 1017.0 6.4 11.3 0.0
00:55 23.8 76.0 1016.8 4.8 11.3 0.0
01:05 23.9 75.0 1016.8 4.8 11.3 0.0
01:15 23.8 76.0 1016.8 3.2 11.3 0.0
01:25 23.7 76.0 1016.8 3.2 11.3 0.0
01:35 23.7 75.0 1016.8 4.8 11.3 0.0
01:45 23.7 74.0 1016.8 3.2 11.3 0.0
01:55 23.4 74.0 1016.7 4.8 11.3 0.0
02:05 23.6 73.0 1016.7 4.8 11.3 0.0
02:15 23.7 72.0 1016.7 4.8 11.3 0.0
02:25 23.4 73.0 1016.5 6.4 11.3 0.0
02:35 23.6 72.0 1016.4 6.4 11.3 0.0
02:45 23.7 71.0 1016.4 6.4 11.3 0.0
02:55 23.7 71.0 1016.3 8.0 11.3 0.0
03:05 23.7 71.0 1016.2 4.8 11.3 0.0
03:15 23.6 71.0 1016.2 3.2 11.3 0.0
03:25 23.3 73.0 1016.3 4.8 11.3 0.0
03:35 23.2 73.0 1016.3 3.2 11.3 0.0
03:45 22.9 74.0 1016.3 4.8 11.3 0.0
03:55 22.9 75.0 1016.4 4.8 11.3 0.0
04:05 22.6 76.0 1016.3 4.8 11.3 0.0
04:15 22.6 76.0 1016.3 6.4 11.3 0.0
04:25 22.8 77.0 1016.4 8.0 11.3 0.0
04:35 23.1 75.0 1016.4 6.4 11.3 0.0
04:45 23.4 74.0 1016.4 8.0 11.3 0.0
04:55 23.7 74.0 1016.4 8.0 11.3 0.0
05:05 23.9 73.0 1016.4 4.8 11.3 0.0
05:15 23.8 74.0 1016.4 3.2 11.3 0.0
05:25 23.9 74.0 1016.3 4.8 11.3 0.0
05:35 24.3 74.0 1016.3 1.6 11.3 0.0
05:45 24.6 74.0 1016.3 3.2 11.3 0.0
05:55 25.3 72.0 1016.4 1.6 11.3 0.0
06:05 26.0 69.0 1016.4 0.0 11.3 0.0
06:15 26.4 67.0 1016.4 0.0 11.3 0.0
06:25 26.9 66.0 1016.6 0.0 11.3 0.0
06:35 27.1 65.0 1016.6 0.0 11.3 0.0
06:45 27.6 64.0 1016.6 0.0 11.3 0.0
06:55 28.1 61.0 1016.5 1.6 11.3 0.0
07:05 28.2 61.0 1016.5 1.6 11.3 0.0
07:15 28.2 62.0 1016.5 3.2 11.3 0.0
07:25 28.4 63.0 1016.6 3.2 11.3 0.0
07:35 28.0 65.0 1016.6 3.2 11.3 0.0
07:45 27.8 68.0 1016.6 3.2 11.3 0.0
07:55 28.3 63.0 1016.6 3.2 11.3 0.0
08:05 28.2 65.0 1016.5 4.8 11.3 0.0
08:15 28.1 64.0 1016.5 4.8 11.3 0.0
08:25 28.3 63.0 1016.6 4.8 11.3 0.0
08:35 28.7 66.0 1016.5 4.8 11.3 0.0
08:45 28.1 69.0 1016.5 6.4 11.3 0.0
08:55 27.8 71.0 1016.6 6.4 11.3 0.0
09:05 28.0 71.0 1016.5 4.8 11.3 0.0
09:15 28.1 70.0 1016.5 4.8 12.9 0.0
09:25 28.2 69.0 1016.5 6.4 12.9 0.0
09:35 28.7 61.0 1016.4 6.4 12.9 0.0
09:45 28.7 64.0 1016.4 6.4 16.1 0.0
09:55 28.7 66.0 1016.4 6.4 16.1 0.0
10:05 28.2 74.0 1016.3 8.0 16.1 0.0
10:15 27.8 79.0 1016.3 8.0 16.1 0.0
10:25 26.9 82.0 1016.4 9.7 16.1 0.0
10:35 27.4 77.0 1016.3 8.0 16.1 0.0
10:45 28.0 73.0 1016.3 8.0 16.1 0.0
10:55 28.0 66.0 1016.2 6.4 16.1 0.0
11:05 28.3 67.0 1016.1 8.0 16.1 0.0
11:15 28.2 70.0 1016.1 8.0 16.1 0.0
11:25 28.7 70.0 1016.1 8.0 17.7 0.0
11:35 28.8 70.0 1016.0 9.7 17.7 0.0
11:45 28.4 71.0 1016.0 6.4 17.7 0.0
11:55 28.8 69.0 1015.8 6.4 17.7 0.0
12:05 28.7 69.0 1015.6 6.4 17.7 0.0
12:15 28.8 72.0 1015.6 8.0 17.7 0.0
12:25 27.7 76.0 1015.6 9.7 17.7 0.0
12:35 27.8 76.0 1015.5 11.3 22.5 0.0
12:45 28.2 75.0 1015.5 9.7 22.5 0.0
12:55 28.2 76.0 1015.4 9.7 22.5 0.0
13:05 27.6 79.0 1015.2 9.7 22.5 0.0
13:15 27.4 80.0 1015.2 11.3 22.5 0.0
13:25 27.9 78.0 1015.1 9.7 25.7 0.0
13:35 27.9 77.0 1015.1 12.9 25.7 0.0
13:45 27.7 78.0 1015.1 11.3 25.7 0.0
13:55 27.3 80.0 1015.0 9.7 25.7 0.0
14:05 27.4 79.0 1015.0 9.7 25.7 0.0
14:15 27.3 80.0 1015.0 9.7 25.7 0.0
14:25 27.6 76.0 1014.9 8.0 25.7 0.0
14:35 28.0 74.0 1014.6 9.7 25.7 0.0
14:45 28.1 74.0 1014.6 9.7 25.7 0.0
14:55 28.0 73.0 1014.5 12.9 27.4 0.0
15:05 27.8 73.0 1014.5 9.7 27.4 0.0
15:15 28.0 71.0 1014.5 8.0 27.4 0.0
15:25 28.3 68.0 1014.3 8.0 27.4 0.0
15:35 28.1 71.0 1014.1 9.7 27.4 0.0
15:45 28.2 69.0 1014.1 9.7 27.4 0.0
15:55 28.6 68.0 1014.0 8.0 27.4 0.0
16:05 28.1 69.0 1013.8 8.0 27.4 0.0
16:15 27.6 70.0 1013.8 8.0 27.4 0.0
16:25 27.8 68.0 1013.7 6.4 27.4 0.0
16:35 27.8 67.0 1013.6 6.4 27.4 0.0
16:45 28.1 65.0 1013.6 8.0 27.4 0.0
16:55 27.9 67.0 1013.4 6.4 27.4 0.0
17:05 27.7 66.0 1013.5 6.4 27.4 0.0
17:15 27.7 69.0 1013.5 4.8 27.4 0.0
17:25 27.9 68.0 1013.5 6.4 27.4 0.0
17:35 27.8 67.0 1013.4 4.8 27.4 0.0
17:45 27.8 68.0 1013.4 6.4 27.4 0.0
17:55 27.6 69.0 1013.3 8.0 27.4 0.0
18:05 27.4 70.0 1013.3 6.4 27.4 0.0
18:15 27.3 68.0 1013.3 4.8 27.4 0.0
18:25 27.2 68.0 1013.3 8.0 27.4 0.0
18:35 27.1 70.0 1013.3 8.0 27.4 0.0
18:45 26.9 70.0 1013.3 6.4 27.4 0.0
18:55 26.8 71.0 1013.4 6.4 27.4 0.0
19:05 26.8 72.0 1013.4 4.8 27.4 0.0
19:15 26.6 72.0 1013.4 6.4 27.4 0.0
19:25 26.6 72.0 1013.4 4.8 27.4 0.0
19:35 26.4 73.0 1013.5 3.2 27.4 0.0
19:45 26.4 73.0 1013.5 4.8 27.4 0.0
19:55 26.3 74.0 1013.4 4.8 27.4 0.0
20:05 26.2 74.0 1013.5 4.8 27.4 0.0
20:15 26.2 75.0 1013.5 3.2 27.4 0.0
20:25 25.8 76.0 1013.7 1.6 27.4 0.0
20:35 25.7 76.0 1013.7 1.6 27.4 0.0
20:45 25.8 75.0 1013.7 0.0 27.4 0.0
20:55 25.7 75.0 1013.6 0.0 27.4 0.0
21:05 25.7 75.0 1013.7 1.6 27.4 0.0
21:15 25.4 76.0 1013.7 1.6 27.4 0.0
21:25 24.8 77.0 1013.6 1.6 27.4 0.0
21:35 24.4 77.0 1013.5 3.2 27.4 0.0
21:45 24.2 78.0 1013.5 3.2 27.4 0.0
21:55 23.9 78.0 1013.5 3.2 27.4 0.0
22:25 24.9 70.0 1013.5 1.6 4.8 0.0
Máxima 28.9 82.0 1017.3 12.9 27.4 0.0
Mínima 20 61.0 1013.3
Total 0.0